createdAt,value
2023-01-27T00:00:29.217Z,100.00
2023-01-27T00:02:55.748Z,100.00
2023-01-27T00:05:22.259Z,100.00
2023-01-27T00:07:49.807Z,100.00
2023-01-27T00:10:18.893Z,100.00
2023-01-27T00:13:05.530Z,100.00
2023-01-27T00:15:33.441Z,100.00
2023-01-27T00:18:00.167Z,100.00
2023-01-27T00:20:45.535Z,100.00
2023-01-27T00:23:35.956Z,100.00
2023-01-27T00:26:06.687Z,100.00
2023-01-27T00:28:34.810Z,100.00
2023-01-27T00:31:01.750Z,100.00
2023-01-27T00:33:28.972Z,100.00
2023-01-27T00:35:59.482Z,100.00
2023-01-27T00:38:31.168Z,100.00
2023-01-27T00:41:19.602Z,100.00
2023-01-27T00:43:48.800Z,100.00
2023-01-27T00:46:16.932Z,100.00
2023-01-27T00:48:43.885Z,100.00
2023-01-27T00:51:11.326Z,100.00
2023-01-27T00:53:38.007Z,100.00
2023-01-27T00:56:04.865Z,100.00
2023-01-27T00:58:31.654Z,100.00
2023-01-27T01:01:00.761Z,100.00
2023-01-27T01:03:31.633Z,100.00
2023-01-27T01:06:02.330Z,100.00
2023-01-27T01:08:31.017Z,100.00
2023-01-27T01:10:57.885Z,100.00
2023-01-27T01:13:24.674Z,100.00
2023-01-27T01:15:51.159Z,100.00
2023-01-27T01:18:17.728Z,100.00
2023-01-27T01:20:46.197Z,100.00
2023-01-27T01:23:14.071Z,100.00
2023-01-27T01:25:41.084Z,100.00
2023-01-27T01:28:08.973Z,100.00
2023-01-27T01:30:36.870Z,100.00
2023-01-27T01:33:04.035Z,100.00
2023-01-27T01:35:31.058Z,100.00
2023-01-27T01:37:57.844Z,100.00
2023-01-27T01:40:25.885Z,100.00
2023-01-27T01:42:54.122Z,100.00
2023-01-27T01:45:48.242Z,100.00
2023-01-27T01:48:31.967Z,100.00
2023-01-27T01:51:16.244Z,100.00
2023-01-27T01:53:49.368Z,100.00
2023-01-27T01:56:19.747Z,100.00
2023-01-27T01:58:48.442Z,100.00
2023-01-27T02:01:16.878Z,100.00
2023-01-27T02:03:47.881Z,100.00
2023-01-27T02:10:01.062Z,100.00
2023-01-27T02:12:27.920Z,100.00
2023-01-27T02:14:54.702Z,100.00
2023-01-27T02:17:21.932Z,100.00
2023-01-27T02:20:00.477Z,100.00
2023-01-27T02:22:42.905Z,100.00
2023-01-27T02:25:21.178Z,100.00
2023-01-27T02:27:47.592Z,100.00
2023-01-27T02:30:14.141Z,100.00
2023-01-27T02:32:40.671Z,100.00
2023-01-27T02:35:12.015Z,100.00
2023-01-27T02:37:39.897Z,100.00
2023-01-27T02:40:08.648Z,100.00
2023-01-27T02:42:35.082Z,100.00
2023-01-27T02:45:01.611Z,100.00
2023-01-27T02:47:28.119Z,100.00
2023-01-27T02:49:54.686Z,100.00
2023-01-27T02:52:23.462Z,100.00
2023-01-27T02:54:49.972Z,100.00
2023-01-27T02:57:16.408Z,100.00
2023-01-27T02:59:42.817Z,100.00
2023-01-27T03:02:12.345Z,100.00
2023-01-27T03:04:38.868Z,100.00
2023-01-27T03:07:05.449Z,100.00
2023-01-27T03:09:32.057Z,100.00
2023-01-27T03:12:16.931Z,100.00
2023-01-27T03:15:02.000Z,100.00
2023-01-27T03:17:46.850Z,100.00
2023-01-27T03:20:13.354Z,100.00
2023-01-27T03:22:39.815Z,100.00
2023-01-27T03:25:06.953Z,100.00
2023-01-27T03:27:33.868Z,100.00
2023-01-27T03:30:00.401Z,100.00
2023-01-27T03:32:28.979Z,100.00
2023-01-27T03:34:58.784Z,100.00
2023-01-27T03:37:44.561Z,100.00
2023-01-27T03:40:30.776Z,100.00
2023-01-27T03:43:16.042Z,100.00
2023-01-27T03:46:06.901Z,100.00
2023-01-27T03:48:34.137Z,100.00
2023-01-27T03:51:02.451Z,100.00
2023-01-27T03:53:29.332Z,100.00
2023-01-27T03:55:55.919Z,100.00
2023-01-27T03:58:23.744Z,100.00
2023-01-27T04:00:53.474Z,100.00
2023-01-27T04:03:40.269Z,100.00
2023-01-27T04:06:28.208Z,100.00
2023-01-27T04:08:55.194Z,100.00
2023-01-27T04:11:40.517Z,100.00
2023-01-27T04:14:08.083Z,100.00
2023-01-27T04:16:36.690Z,100.00
2023-01-27T04:19:05.782Z,100.00
2023-01-27T04:21:32.786Z,100.00
2023-01-27T04:23:59.780Z,100.00
2023-01-27T04:26:26.409Z,100.00
2023-01-27T04:28:52.844Z,100.00
2023-01-27T04:31:19.409Z,100.00
2023-01-27T04:33:45.886Z,100.00
2023-01-27T04:36:16.302Z,100.00
2023-01-27T04:38:42.775Z,100.00
2023-01-27T04:41:09.802Z,100.00
2023-01-27T04:43:36.574Z,100.00
2023-01-27T04:46:03.566Z,100.00
2023-01-27T04:48:30.038Z,100.00
2023-01-27T04:50:56.560Z,100.00
2023-01-27T04:53:23.038Z,100.00
2023-01-27T04:55:50.130Z,100.00
2023-01-27T04:58:17.818Z,100.00
2023-01-27T05:00:45.342Z,100.00
2023-01-27T05:03:12.094Z,100.00
2023-01-27T05:05:38.746Z,100.00
2023-01-27T05:08:10.359Z,100.00
2023-01-27T05:10:37.440Z,100.00
2023-01-27T05:13:04.305Z,100.00
2023-01-27T05:15:31.041Z,100.00
2023-01-27T05:17:57.570Z,100.00
2023-01-27T05:20:24.148Z,100.00
2023-01-27T05:22:51.454Z,100.00
2023-01-27T05:25:17.956Z,100.00
2023-01-27T05:27:44.821Z,100.00
2023-01-27T05:30:12.057Z,100.00
2023-01-27T05:32:38.507Z,100.00
2023-01-27T05:35:05.461Z,100.00
2023-01-27T05:37:32.015Z,100.00
2023-01-27T05:39:59.455Z,100.00
2023-01-27T05:42:27.163Z,100.00
2023-01-27T05:44:53.577Z,100.00
2023-01-27T05:47:20.070Z,100.00
2023-01-27T05:49:46.752Z,100.00
2023-01-27T05:52:13.202Z,100.00
2023-01-27T05:54:39.656Z,100.00
2023-01-27T05:57:06.184Z,100.00
2023-01-27T05:59:32.700Z,100.00
2023-01-27T06:01:59.222Z,100.00
2023-01-27T06:04:26.156Z,100.00
2023-01-27T06:06:52.610Z,100.00
2023-01-27T06:09:19.096Z,100.00
2023-01-27T06:11:45.618Z,100.00
2023-01-27T06:14:12.180Z,100.00
2023-01-27T06:16:38.701Z,100.00
2023-01-27T06:19:05.203Z,100.00
2023-01-27T06:21:31.712Z,100.00
2023-01-27T06:23:58.416Z,100.00
2023-01-27T06:26:24.968Z,100.00
2023-01-27T06:28:51.478Z,100.00
2023-01-27T06:31:21.982Z,100.00
2023-01-27T06:33:49.689Z,100.00
2023-01-27T06:36:18.698Z,100.00
2023-01-27T06:38:45.916Z,100.00
2023-01-27T06:41:12.465Z,100.00
2023-01-27T06:43:38.938Z,100.00
2023-01-27T06:46:06.390Z,100.00
2023-01-27T06:48:33.833Z,100.00
2023-01-27T06:51:00.437Z,100.00
2023-01-27T06:53:27.315Z,100.00
2023-01-27T06:55:58.490Z,100.00
2023-01-27T06:58:25.593Z,100.00
2023-01-27T07:00:52.715Z,100.00
2023-01-27T07:03:19.410Z,100.00
2023-01-27T07:05:45.874Z,100.00
2023-01-27T07:08:12.580Z,100.00
2023-01-27T07:10:39.415Z,100.00
2023-01-27T07:13:10.359Z,100.00
2023-01-27T07:15:36.916Z,100.00
2023-01-27T07:18:04.549Z,100.00
2023-01-27T07:20:31.692Z,100.00
2023-01-27T07:22:59.422Z,100.00
2023-01-27T07:25:26.645Z,100.00
2023-01-27T07:27:53.811Z,100.00
2023-01-27T07:30:20.388Z,100.00
2023-01-27T07:32:46.880Z,100.00
2023-01-27T07:35:13.361Z,100.00
2023-01-27T07:37:39.824Z,100.00
2023-01-27T07:40:06.896Z,100.00
2023-01-27T07:42:33.367Z,100.00
2023-01-27T07:44:59.788Z,100.00
2023-01-27T07:47:26.349Z,100.00
2023-01-27T07:49:52.843Z,100.00
2023-01-27T07:52:19.291Z,100.00
2023-01-27T07:54:45.817Z,100.00
2023-01-27T07:57:12.308Z,100.00
2023-01-27T07:59:38.738Z,100.00
2023-01-27T08:02:05.186Z,100.00
2023-01-27T08:04:43.406Z,100.00
2023-01-27T08:07:17.901Z,100.00
2023-01-27T08:09:44.404Z,100.00
2023-01-27T08:12:10.963Z,100.00
2023-01-27T08:14:37.409Z,100.00
2023-01-27T08:17:03.859Z,100.00
2023-01-27T08:19:30.370Z,100.00
2023-01-27T08:21:56.782Z,100.00
2023-01-27T08:24:23.315Z,100.00
2023-01-27T08:26:49.793Z,100.00
2023-01-27T08:29:16.305Z,100.00
2023-01-27T08:31:42.921Z,100.00
2023-01-27T08:34:09.446Z,100.00
2023-01-27T08:36:36.611Z,100.00
2023-01-27T08:39:03.176Z,100.00
2023-01-27T08:41:29.697Z,100.00
2023-01-27T08:43:56.275Z,100.00
2023-01-27T08:46:22.760Z,100.00
2023-01-27T08:48:50.338Z,100.00
2023-01-27T08:51:16.922Z,100.00
2023-01-27T08:53:43.486Z,100.00
2023-01-27T08:56:15.110Z,100.00
2023-01-27T08:58:42.037Z,100.00
2023-01-27T09:01:08.588Z,100.00
2023-01-27T09:03:35.676Z,100.00
2023-01-27T09:06:02.899Z,100.00
2023-01-27T09:08:30.059Z,100.00
2023-01-27T09:10:57.091Z,100.00
2023-01-27T09:13:23.668Z,100.00
2023-01-27T09:15:53.402Z,100.00
2023-01-27T09:18:20.234Z,100.00
2023-01-27T09:20:46.973Z,100.00
2023-01-27T09:23:13.560Z,100.00
2023-01-27T09:25:40.187Z,100.00
2023-01-27T09:28:09.935Z,100.00
2023-01-27T09:30:36.789Z,100.00
2023-01-27T09:33:03.593Z,100.00
2023-01-27T09:35:39.164Z,100.00
2023-01-27T09:38:07.028Z,100.00
2023-01-27T09:40:44.789Z,100.00
2023-01-27T09:43:39.033Z,100.00
2023-01-27T09:46:21.560Z,100.00
2023-01-27T09:49:14.416Z,100.00
2023-01-27T09:51:40.876Z,100.00
2023-01-27T09:54:25.799Z,100.00
2023-01-27T09:56:55.076Z,100.00
2023-01-27T09:59:21.581Z,100.00
2023-01-27T10:02:09.720Z,100.00
2023-01-27T10:05:01.905Z,100.00
2023-01-27T10:07:51.259Z,100.00
2023-01-27T10:10:32.951Z,100.00
2023-01-27T10:12:59.285Z,100.00
2023-01-27T10:16:03.256Z,100.00
2023-01-27T10:18:35.567Z,100.00
2023-01-27T10:21:40.508Z,100.00
2023-01-27T10:24:33.015Z,100.00
2023-01-27T10:27:13.601Z,100.00
2023-01-27T10:29:46.041Z,100.00
2023-01-27T10:32:28.502Z,100.00
2023-01-27T10:35:03.952Z,100.00
2023-01-27T10:37:57.304Z,100.00
2023-01-27T10:40:48.910Z,100.00
2023-01-27T10:43:26.129Z,100.00
2023-01-27T10:46:04.113Z,100.00
2023-01-27T10:48:40.781Z,100.00
2023-01-27T10:51:17.620Z,100.00
2023-01-27T10:53:52.526Z,100.00
2023-01-27T10:56:41.546Z,100.00
2023-01-27T10:59:25.912Z,100.00
2023-01-27T11:02:16.012Z,100.00
2023-01-27T11:04:46.891Z,100.00
2023-01-27T11:07:19.997Z,100.00
2023-01-27T11:09:56.865Z,100.00
2023-01-27T11:12:33.558Z,100.00
2023-01-27T11:15:01.990Z,100.00
2023-01-27T11:17:47.233Z,100.00
2023-01-27T11:20:29.484Z,100.00
2023-01-27T11:22:56.171Z,100.00
2023-01-27T11:25:50.256Z,100.00
2023-01-27T11:28:38.899Z,100.00
2023-01-27T11:31:26.533Z,100.00
2023-01-27T11:34:00.840Z,100.00
2023-01-27T11:36:27.463Z,100.00
2023-01-27T11:38:55.664Z,100.00
2023-01-27T11:41:22.688Z,100.00
2023-01-27T11:43:49.333Z,100.00
2023-01-27T11:46:21.541Z,100.00
2023-01-27T11:48:52.745Z,100.00
2023-01-27T11:51:25.061Z,100.00
2023-01-27T11:54:11.919Z,100.00
2023-01-27T11:56:41.612Z,100.00
2023-01-27T11:59:19.856Z,100.00
2023-01-27T12:01:53.870Z,100.00
2023-01-27T12:04:46.414Z,100.00
2023-01-27T12:07:21.038Z,100.00
2023-01-27T12:09:48.070Z,100.00
2023-01-27T12:12:14.678Z,100.00
2023-01-27T12:15:14.556Z,100.00
2023-01-27T12:17:46.874Z,100.00
2023-01-27T12:20:39.232Z,100.00
2023-01-27T12:23:29.525Z,100.00
2023-01-27T12:26:00.248Z,100.00
2023-01-27T12:28:32.442Z,100.00
2023-01-27T12:31:11.532Z,100.00
2023-01-27T12:33:43.076Z,100.00
2023-01-27T12:36:22.606Z,100.00
2023-01-27T12:39:00.270Z,100.00
2023-01-27T12:41:37.758Z,100.00
2023-01-27T12:44:19.479Z,100.00
2023-01-27T12:47:02.657Z,100.00
2023-01-27T12:49:43.457Z,100.00
2023-01-27T12:52:18.462Z,100.00
2023-01-27T12:54:44.997Z,100.00
2023-01-27T12:57:19.413Z,100.00
2023-01-27T12:59:50.368Z,100.00
2023-01-27T13:02:25.661Z,100.00
2023-01-27T13:04:59.099Z,100.00
2023-01-27T13:07:32.815Z,100.00
2023-01-27T13:10:03.129Z,100.00
2023-01-27T13:12:49.179Z,100.00
2023-01-27T13:15:19.151Z,100.00
2023-01-27T13:17:48.852Z,100.00
2023-01-27T13:20:34.813Z,100.00
2023-01-27T13:23:06.283Z,100.00
2023-01-27T13:25:45.449Z,100.00
2023-01-27T13:28:18.852Z,100.00
2023-01-27T13:30:52.285Z,100.00
2023-01-27T13:33:31.399Z,100.00
2023-01-27T13:36:09.979Z,100.00
2023-01-27T13:39:18.006Z,100.00
2023-01-27T13:42:19.408Z,100.00
2023-01-27T13:44:51.077Z,100.00
2023-01-27T13:47:25.214Z,100.00
2023-01-27T13:50:00.133Z,100.00
2023-01-27T13:52:26.775Z,100.00
2023-01-27T13:54:53.411Z,100.00
2023-01-27T13:57:32.679Z,100.00
2023-01-27T14:00:19.651Z,100.00
2023-01-27T14:02:58.432Z,100.00
2023-01-27T14:05:28.104Z,100.00
2023-01-27T14:08:10.275Z,100.00
2023-01-27T14:11:05.968Z,100.00
2023-01-27T14:13:42.589Z,100.00
2023-01-27T14:16:31.404Z,100.00
2023-01-27T14:19:03.516Z,100.00
2023-01-27T14:21:41.481Z,100.00
2023-01-27T14:24:24.125Z,100.00
2023-01-27T14:27:01.913Z,100.00
2023-01-27T14:29:43.574Z,100.00
2023-01-27T14:32:26.307Z,100.00
2023-01-27T14:35:05.561Z,100.00
2023-01-27T14:37:50.367Z,100.00
2023-01-27T14:40:39.046Z,100.00
2023-01-27T14:43:31.202Z,100.00
2023-01-27T14:46:35.253Z,100.00
2023-01-27T14:49:07.797Z,100.00
2023-01-27T14:51:44.546Z,100.00
2023-01-27T14:54:51.823Z,100.00
2023-01-27T14:57:39.918Z,100.00
2023-01-27T15:00:30.112Z,100.00
2023-01-27T15:03:11.809Z,100.00
2023-01-27T15:05:53.470Z,100.00
2023-01-27T15:08:29.223Z,100.00
2023-01-27T15:11:10.959Z,100.00
2023-01-27T15:13:42.750Z,100.00
2023-01-27T15:16:19.573Z,100.00
2023-01-27T15:18:55.617Z,100.00
2023-01-27T15:21:49.075Z,100.00
2023-01-27T15:24:41.703Z,100.00
2023-01-27T15:27:09.692Z,100.00
2023-01-27T15:29:37.289Z,100.00
2023-01-27T15:32:27.141Z,100.00
2023-01-27T15:35:22.558Z,100.00
2023-01-27T15:38:00.665Z,100.00
2023-01-27T15:40:27.658Z,100.00
2023-01-27T15:43:05.122Z,100.00
2023-01-27T15:45:37.017Z,100.00
2023-01-27T15:48:10.494Z,100.00
2023-01-27T15:50:44.196Z,100.00
2023-01-27T15:53:28.208Z,100.00
2023-01-27T15:55:57.420Z,100.00
2023-01-27T15:58:37.784Z,100.00
2023-01-27T16:01:08.670Z,100.00
2023-01-27T16:03:44.874Z,100.00
2023-01-27T16:06:17.641Z,100.00
2023-01-27T16:09:02.791Z,100.00
2023-01-27T16:11:29.185Z,100.00
2023-01-27T16:14:13.937Z,100.00
2023-01-27T16:16:49.808Z,100.00
2023-01-27T16:19:22.597Z,100.00
2023-01-27T16:21:57.435Z,100.00
2023-01-27T16:24:44.282Z,100.00
2023-01-27T16:27:42.646Z,100.00
2023-01-27T16:30:29.329Z,100.00
2023-01-27T16:33:06.360Z,99.87
2023-01-27T16:35:54.445Z,100.00
2023-01-27T16:38:26.008Z,99.32
2023-01-27T16:40:57.191Z,100.00
2023-01-27T16:43:31.561Z,100.00
2023-01-27T16:46:01.335Z,98.20
2023-01-27T16:48:44.276Z,97.42
2023-01-27T16:51:23.233Z,96.14
2023-01-27T16:53:52.010Z,95.59
2023-01-27T16:56:28.899Z,96.45
2023-01-27T16:59:10.223Z,96.30
2023-01-27T17:01:47.595Z,96.14
2023-01-27T17:04:20.710Z,95.26
2023-01-27T17:06:48.877Z,93.79
2023-01-27T17:09:32.199Z,93.68
2023-01-27T17:11:59.464Z,92.37
2023-01-27T17:14:32.743Z,92.71
2023-01-27T17:17:02.490Z,92.82
2023-01-27T17:19:32.397Z,92.62
2023-01-27T17:22:10.386Z,93.26
2023-01-27T17:24:40.921Z,91.74
2023-01-27T17:27:21.223Z,92.24
2023-01-27T17:29:49.516Z,92.65
2023-01-27T17:32:26.251Z,91.06
2023-01-27T17:34:57.194Z,91.71
2023-01-27T17:37:24.517Z,90.96
2023-01-27T17:40:03.510Z,89.61
2023-01-27T17:42:32.508Z,89.98
2023-01-27T17:45:27.203Z,89.94
2023-01-27T17:47:57.391Z,88.42
2023-01-27T17:50:25.928Z,88.19
2023-01-27T17:52:54.733Z,88.21
2023-01-27T17:55:23.680Z,88.47
2023-01-27T17:57:59.691Z,88.33
2023-01-27T18:00:30.063Z,88.96
2023-01-27T18:03:04.678Z,88.95
2023-01-27T18:05:33.309Z,89.41
2023-01-27T18:08:01.516Z,89.70
2023-01-27T18:10:48.224Z,90.85
2023-01-27T18:13:17.735Z,92.52
2023-01-27T18:16:02.701Z,92.76
2023-01-27T18:18:32.380Z,92.15
2023-01-27T18:21:03.267Z,93.02
2023-01-27T18:23:48.119Z,92.29
2023-01-27T18:26:20.423Z,93.09
2023-01-27T18:28:59.065Z,93.43
2023-01-27T18:31:37.380Z,91.86
2023-01-27T18:34:06.891Z,91.64
2023-01-27T18:36:36.780Z,91.33
2023-01-27T18:39:24.139Z,91.00
2023-01-27T18:41:50.667Z,91.76
2023-01-27T18:44:18.959Z,91.57
2023-01-27T18:46:45.499Z,92.27
2023-01-27T18:49:12.594Z,92.43
2023-01-27T18:51:39.167Z,91.54
2023-01-27T18:54:08.545Z,91.57
2023-01-27T18:56:35.030Z,91.99
2023-01-27T18:59:01.527Z,92.65
2023-01-27T19:01:28.014Z,92.49
2023-01-27T19:03:57.368Z,92.29
2023-01-27T19:06:23.937Z,92.71
2023-01-27T19:08:52.036Z,92.66
2023-01-27T19:11:18.817Z,92.63
2023-01-27T19:13:47.836Z,90.83
2023-01-27T19:16:17.706Z,91.53
2023-01-27T19:18:44.639Z,91.26
2023-01-27T19:21:16.151Z,91.79
2023-01-27T19:23:44.508Z,92.76
2023-01-27T19:26:19.794Z,91.73
2023-01-27T19:28:51.607Z,92.20
2023-01-27T19:31:18.645Z,93.22
2023-01-27T19:33:47.328Z,91.72
2023-01-27T19:36:23.980Z,90.48
2023-01-27T19:39:15.240Z,91.77
2023-01-27T19:41:42.176Z,92.34
2023-01-27T19:44:10.093Z,92.65
2023-01-27T19:46:38.347Z,92.98
2023-01-27T19:49:04.852Z,91.51
2023-01-27T19:51:32.203Z,90.88
2023-01-27T19:53:58.665Z,89.78
2023-01-27T19:56:30.505Z,89.99
2023-01-27T19:58:56.920Z,90.11
2023-01-27T20:01:24.998Z,90.47
2023-01-27T20:03:52.971Z,89.86
2023-01-27T20:06:22.978Z,88.77
2023-01-27T20:08:55.006Z,88.52
2023-01-27T20:11:37.379Z,89.54
2023-01-27T20:14:13.610Z,89.44
2023-01-27T20:16:40.847Z,88.30
2023-01-27T20:19:07.659Z,87.36
2023-01-27T20:21:34.523Z,87.24
2023-01-27T20:24:02.062Z,87.91
2023-01-27T20:26:32.453Z,87.52
2023-01-27T20:28:59.402Z,87.59
2023-01-27T20:31:26.076Z,88.13
2023-01-27T20:33:52.886Z,87.16
2023-01-27T20:36:23.330Z,85.95
2023-01-27T20:38:51.134Z,86.38
2023-01-27T20:41:20.762Z,85.88
2023-01-27T20:43:47.457Z,86.15
2023-01-27T20:46:18.197Z,86.53
2023-01-27T20:48:44.868Z,86.68
2023-01-27T20:51:14.393Z,84.80
2023-01-27T20:53:45.363Z,84.55
2023-01-27T20:56:18.502Z,84.71
2023-01-27T20:58:46.004Z,85.52
2023-01-27T21:01:15.955Z,84.62
2023-01-27T21:03:42.719Z,84.38
2023-01-27T21:06:10.827Z,85.05
2023-01-27T21:08:37.487Z,84.21
2023-01-27T21:11:06.574Z,84.86
2023-01-27T21:13:33.112Z,84.66
2023-01-27T21:16:01.685Z,84.41
2023-01-27T21:18:28.384Z,84.46
2023-01-27T21:20:56.801Z,83.83
2023-01-27T21:23:24.411Z,83.98
2023-01-27T21:25:51.406Z,84.13
2023-01-27T21:28:18.329Z,84.16
2023-01-27T21:30:45.481Z,83.92
2023-01-27T21:33:12.393Z,84.86
2023-01-27T21:35:39.267Z,84.26
2023-01-27T21:38:05.899Z,83.07
2023-01-27T21:40:33.472Z,82.64
2023-01-27T21:43:18.316Z,82.92
2023-01-27T21:45:44.846Z,81.74
2023-01-27T21:48:11.265Z,81.32
2023-01-27T21:50:38.566Z,81.73
2023-01-27T21:53:09.818Z,80.92
2023-01-27T21:55:36.519Z,80.26
2023-01-27T21:58:03.007Z,79.83
2023-01-27T22:00:30.007Z,79.99
2023-01-27T22:02:58.712Z,79.91
2023-01-27T22:05:26.462Z,79.28
2023-01-27T22:07:53.735Z,79.32
2023-01-27T22:10:26.240Z,79.39
2023-01-27T22:13:01.293Z,79.37
2023-01-27T22:15:30.846Z,80.42
2023-01-27T22:17:58.383Z,79.33
2023-01-27T22:20:25.563Z,79.91
2023-01-27T22:22:52.421Z,80.90
2023-01-27T22:25:19.075Z,81.72
2023-01-27T22:27:46.203Z,81.28
2023-01-27T22:30:18.180Z,82.18
2023-01-27T22:32:45.669Z,83.05
2023-01-27T22:35:17.650Z,83.58
2023-01-27T22:37:44.556Z,82.36
2023-01-27T22:40:12.676Z,83.05
2023-01-27T22:42:41.915Z,83.70
2023-01-27T22:45:09.568Z,82.85
2023-01-27T22:47:36.295Z,84.16
2023-01-27T22:50:03.449Z,83.98
2023-01-27T22:52:29.870Z,84.64
2023-01-27T22:54:56.374Z,85.59
2023-01-27T22:57:23.540Z,85.01
2023-01-27T22:59:49.939Z,85.31
2023-01-27T23:02:16.406Z,85.77
2023-01-27T23:04:42.907Z,86.15
2023-01-27T23:07:09.374Z,85.82
2023-01-27T23:09:35.827Z,86.06
2023-01-27T23:12:02.304Z,87.16
2023-01-27T23:14:28.741Z,86.79
2023-01-27T23:16:55.371Z,86.83
2023-01-27T23:19:22.006Z,86.78
2023-01-27T23:21:48.501Z,87.07
2023-01-27T23:24:15.630Z,85.41
2023-01-27T23:26:42.088Z,86.09
2023-01-27T23:29:19.485Z,86.21
2023-01-27T23:31:50.981Z,86.05
2023-01-27T23:34:17.540Z,86.27
2023-01-27T23:36:44.013Z,85.72
2023-01-27T23:39:14.435Z,87.09
2023-01-27T23:41:41.001Z,86.61
2023-01-27T23:44:10.699Z,86.47
2023-01-27T23:46:37.198Z,86.69
2023-01-27T23:49:03.726Z,86.64
2023-01-27T23:51:30.269Z,87.22
2023-01-27T23:53:56.775Z,87.44
2023-01-27T23:56:23.418Z,86.56
2023-01-27T23:58:50.070Z,87.99
